Time;durP1;ratioP1;P1;durP2;ratioP2;P2;SDS_P1;SDS_P2;PMS_P1;PMS_P2;Temp;Humidity;BMP_temperature;BMP_pressure;BME280_temperature;BME280_humidity;BME280_pressure;Samples;Min_cycle;Max_cycle;Signal;HPM_P1;HPM_P2
2022/11/18 00:01:29;;;;;;;;;;;;;;;;;;5011385;28;19917;-62
2022/11/18 00:03:55;;;;;;;;;;;;;;;;;;5011558;28;19917;-62
2022/11/18 00:06:21;;;;;;;;;;;;;;;;;;5011383;28;20385;-62
2022/11/18 00:08:47;;;;;;;;;;;;;;;;;;5011424;28;20027;-62
2022/11/18 00:14:17;;;;;;;;;;;;;;;;;;5011636;28;20015;-62
2022/11/18 00:14:17;;;;;;;;;;;;;;;;;;5010933;28;19925;-61
2022/11/18 00:16:43;;;;;;;;;;;;;;;;;;5011227;28;19932;-62
2022/11/18 00:19:09;;;;;;;;;;;;;;;;;;5011514;28;19914;-62
2022/11/18 00:21:35;;;;;;;;;;;;;;;;;;5011074;28;20399;-61
2022/11/18 00:24:01;;;;;;;;;;;;;;;;;;5011446;28;19913;-62
2022/11/18 00:26:27;;;;;;;;;;;;;;;;;;5010931;28;19928;-62
2022/11/18 00:28:53;;;;;;;;;;;;;;;;;;5010802;28;19941;-62
2022/11/18 00:31:18;;;;;;;;;;;;;;;;;;5011207;28;19913;-62
2022/11/18 00:33:44;;;;;;;;;;;;;;;;;;5011262;28;19983;-62
2022/11/18 00:36:10;;;;;;;;;;;;;;;;;;5011255;28;19909;-62
2022/11/18 00:38:36;;;;;;;;;;;;;;;;;;5010806;28;19914;-62
2022/11/18 00:41:02;;;;;;;;;;;;;;;;;;5010791;28;19922;-61
2022/11/18 00:43:28;;;;;;;;;;;;;;;;;;5011555;28;19910;-62
2022/11/18 00:45:54;;;;;;;;;;;;;;;;;;5010996;28;19968;-62
2022/11/18 00:48:20;;;;;;;;;;;;;;;;;;5010822;28;19914;-63
2022/11/18 00:50:46;;;;;;;;;;;;;;;;;;5010483;28;20381;-63
2022/11/18 00:53:12;;;;;;;;;;;;;;;;;;5010473;28;19921;-61
2022/11/18 00:55:38;;;;;;;;;;;;;;;;;;5004352;28;19963;-62
2022/11/18 00:58:04;;;;;;;;;;;;;;;;;;5010314;28;19920;-62
2022/11/18 01:00:30;;;;;;;;;;;;;;;;;;5010895;28;19914;-62
2022/11/18 01:02:56;;;;;;;;;;;;;;;;;;5010454;28;20302;-62
2022/11/18 01:05:22;;;;;;;;;;;;;;;;;;5010840;28;19959;-62
2022/11/18 01:07:47;;;;;;;;;;;;;;;;;;5010913;28;19914;-61
2022/11/18 01:10:13;;;;;;;;;;;;;;;;;;5010249;28;20366;-62
2022/11/18 01:15:24;;;;;;;;;;;;;;;;;;5010169;28;19959;-61
2022/11/18 01:17:49;;;;;;;;;;;;;;;;;;5010522;28;19922;-62
2022/11/18 01:20:15;;;;;;;;;;;;;;;;;;5010797;28;19928;-62
2022/11/18 01:22:42;;;;;;;;;;;;;;;;;;5009756;28;19920;-61
2022/11/18 01:25:07;;;;;;;;;;;;;;;;;;5010091;28;20429;-62
2022/11/18 01:27:33;;;;;;;;;;;;;;;;;;5021484;28;19996;-62
2022/11/18 01:29:59;;;;;;;;;;;;;;;;;;5010074;28;19914;-62
2022/11/18 01:32:25;;;;;;;;;;;;;;;;;;5009602;28;19967;-62
2022/11/18 01:34:51;;;;;;;;;;;;;;;;;;5010217;28;19917;-62
2022/11/18 01:37:17;;;;;;;;;;;;;;;;;;5009813;28;19914;-62
2022/11/18 01:39:43;;;;;;;;;;;;;;;;;;5009902;28;19913;-61
2022/11/18 01:42:09;;;;;;;;;;;;;;;;;;5009776;28;20374;-63
2022/11/18 01:44:35;;;;;;;;;;;;;;;;;;5010148;28;19996;-61
2022/11/18 01:47:00;;;;;;;;;;;;;;;;;;5009650;28;19925;-62
2022/11/18 01:49:26;;;;;;;;;;;;;;;;;;5009527;28;19913;-62
2022/11/18 01:51:52;;;;;;;;;;;;;;;;;;5009481;28;20449;-61
2022/11/18 01:54:18;;;;;;;;;;;;;;;;;;5009809;28;19917;-62
2022/11/18 01:56:44;;;;;;;;;;;;;;;;;;5009590;28;20385;-62
2022/11/18 01:59:10;;;;;;;;;;;;;;;;;;5203894;22;19943;-60
2022/11/18 02:01:36;;;;;;;;;;;;;;;;;;5045935;28;19924;-63
2022/11/18 02:04:02;;;;;;;;;;;;;;;;;;5049563;28;19932;-63
2022/11/18 02:06:27;;;;;;;;;;;;;;;;;;5049314;28;19920;-63
2022/11/18 02:08:53;;;;;;;;;;;;;;;;;;5056664;28;19915;-63
2022/11/18 02:14:04;;;;;;;;;;;;;;;;;;5049019;28;19947;-60
2022/11/18 02:16:30;;;;;;;;;;;;;;;;;;5049109;28;19910;-62
2022/11/18 02:18:56;;;;;;;;;;;;;;;;;;5055551;28;20023;-63
2022/11/18 02:21:22;;;;;;;;;;;;;;;;;;5049248;28;19913;-63
2022/11/18 02:23:48;;;;;;;;;;;;;;;;;;5048250;28;19913;-63
2022/11/18 02:26:13;;;;;;;;;;;;;;;;;;5063194;28;19955;-63
2022/11/18 02:28:39;;;;;;;;;;;;;;;;;;5054490;28;19915;-63
2022/11/18 02:31:05;;;;;;;;;;;;;;;;;;5060978;28;19912;-62
2022/11/18 02:33:31;;;;;;;;;;;;;;;;;;5059547;28;19955;-62
2022/11/18 02:35:57;;;;;;;;;;;;;;;;;;5054466;28;19913;-62
2022/11/18 02:38:23;;;;;;;;;;;;;;;;;;5079933;28;20660;-63
2022/11/18 02:40:49;;;;;;;;;;;;;;;;;;5058503;28;19912;-64
2022/11/18 02:43:15;;;;;;;;;;;;;;;;;;5059755;28;20387;-63
2022/11/18 02:45:41;;;;;;;;;;;;;;;;;;5048363;28;19912;-63
2022/11/18 02:48:07;;;;;;;;;;;;;;;;;;5052443;28;19931;-62
2022/11/18 02:50:33;;;;;;;;;;;;;;;;;;5067975;28;19920;-62
2022/11/18 02:52:58;;;;;;;;;;;;;;;;;;5066499;28;19920;-62
2022/11/18 02:55:24;;;;;;;;;;;;;;;;;;5059111;28;19956;-63
2022/11/18 02:57:50;;;;;;;;;;;;;;;;;;5052600;28;19919;-63
2022/11/18 03:00:16;;;;;;;;;;;;;;;;;;5052562;28;19947;-65
2022/11/18 03:02:42;;;;;;;;;;;;;;;;;;5052769;28;19919;-63
2022/11/18 03:05:08;;;;;;;;;;;;;;;;;;5052785;28;19909;-63
2022/11/18 03:07:34;;;;;;;;;;;;;;;;;;5051890;28;20384;-64
2022/11/18 03:10:00;;;;;;;;;;;;;;;;;;5051816;28;19959;-63
2022/11/18 03:12:26;;;;;;;;;;;;;;;;;;5052967;28;19917;-62
2022/11/18 03:14:52;;;;;;;;;;;;;;;;;;5053274;28;19912;-64
2022/11/18 03:17:18;;;;;;;;;;;;;;;;;;5059451;28;19935;-62
2022/11/18 03:19:43;;;;;;;;;;;;;;;;;;5060360;28;19917;-63
2022/11/18 03:22:09;;;;;;;;;;;;;;;;;;5054024;28;19920;-63
2022/11/18 03:24:35;;;;;;;;;;;;;;;;;;5065122;28;19960;-62
2022/11/18 03:27:01;;;;;;;;;;;;;;;;;;5052330;28;19912;-62
2022/11/18 03:29:27;;;;;;;;;;;;;;;;;;5051777;28;19908;-63
2022/11/18 03:31:53;;;;;;;;;;;;;;;;;;5051655;28;20392;-63
2022/11/18 03:34:19;;;;;;;;;;;;;;;;;;5055789;28;20015;-63
2022/11/18 03:36:45;;;;;;;;;;;;;;;;;;5050674;28;20535;-62
2022/11/18 03:39:11;;;;;;;;;;;;;;;;;;5052078;28;19912;-63
2022/11/18 03:41:37;;;;;;;;;;;;;;;;;;5064435;28;20524;-63
2022/11/18 03:44:02;;;;;;;;;;;;;;;;;;5051971;28;19919;-62
2022/11/18 03:46:28;;;;;;;;;;;;;;;;;;5051771;28;20280;-64
2022/11/18 03:48:54;;;;;;;;;;;;;;;;;;5045333;28;19971;-63
2022/11/18 03:51:20;;;;;;;;;;;;;;;;;;5057627;28;19909;-63
2022/11/18 03:53:46;;;;;;;;;;;;;;;;;;5054442;28;19920;-63
2022/11/18 03:56:12;;;;;;;;;;;;;;;;;;5051887;28;19931;-63
2022/11/18 03:58:38;;;;;;;;;;;;;;;;;;5051668;28;19913;-61
2022/11/18 04:01:04;;;;;;;;;;;;;;;;;;5051610;28;20377;-63
2022/11/18 04:03:30;;;;;;;;;;;;;;;;;;5052083;28;19909;-63
2022/11/18 04:05:55;;;;;;;;;;;;;;;;;;5051965;28;19966;-64
2022/11/18 04:08:21;;;;;;;;;;;;;;;;;;5051831;28;19908;-63
2022/11/18 04:10:47;;;;;;;;;;;;;;;;;;5051181;28;19924;-63
2022/11/18 04:13:13;;;;;;;;;;;;;;;;;;5051513;28;20455;-62
2022/11/18 04:15:39;;;;;;;;;;;;;;;;;;5052048;28;19959;-64
2022/11/18 04:18:05;;;;;;;;;;;;;;;;;;5058747;28;19959;-63
2022/11/18 04:20:32;;;;;;;;;;;;;;;;;;5050838;28;20344;-62
2022/11/18 04:22:58;;;;;;;;;;;;;;;;;;5051519;28;19966;-64
2022/11/18 04:25:24;;;;;;;;;;;;;;;;;;5051569;28;19917;-63
2022/11/18 04:27:50;;;;;;;;;;;;;;;;;;5051740;28;19916;-63
2022/11/18 04:30:16;;;;;;;;;;;;;;;;;;5050874;28;19955;-63
2022/11/18 04:32:42;;;;;;;;;;;;;;;;;;5051294;28;20426;-63
2022/11/18 04:35:08;;;;;;;;;;;;;;;;;;5050883;28;20004;-63
2022/11/18 04:37:34;;;;;;;;;;;;;;;;;;5051044;28;19970;-63
2022/11/18 04:39:59;;;;;;;;;;;;;;;;;;5051206;28;19912;-63
2022/11/18 04:42:25;;;;;;;;;;;;;;;;;;5050968;28;19943;-63
2022/11/18 04:44:51;;;;;;;;;;;;;;;;;;5051138;28;19909;-63
2022/11/18 04:47:17;;;;;;;;;;;;;;;;;;5050744;28;19965;-62
2022/11/18 04:49:43;;;;;;;;;;;;;;;;;;5050660;28;20606;-63
2022/11/18 04:52:09;;;;;;;;;;;;;;;;;;5082984;28;20384;-63
2022/11/18 04:54:35;;;;;;;;;;;;;;;;;;5063181;28;19916;-63
2022/11/18 04:57:01;;;;;;;;;;;;;;;;;;5050585;28;20423;-63
2022/11/18 04:59:27;;;;;;;;;;;;;;;;;;5050510;28;19921;-63
2022/11/18 05:01:53;;;;;;;;;;;;;;;;;;5050271;28;19956;-61
2022/11/18 05:04:19;;;;;;;;;;;;;;;;;;5050083;28;19962;-62
2022/11/18 05:06:45;;;;;;;;;;;;;;;;;;5050197;28;19913;-62
2022/11/18 05:09:10;;;;;;;;;;;;;;;;;;5050374;28;19940;-62
2022/11/18 05:14:21;;;;;;;;;;;;;;;;;;5050419;28;19936;-63
2022/11/18 05:16:47;;;;;;;;;;;;;;;;;;5043575;28;19912;-63
2022/11/18 05:19:13;;;;;;;;;;;;;;;;;;5069221;28;20023;-62
2022/11/18 05:21:38;;;;;;;;;;;;;;;;;;5054768;28;19909;-63
2022/11/18 05:24:04;;;;;;;;;;;;;;;;;;5050161;28;19912;-64
2022/11/18 05:26:30;;;;;;;;;;;;;;;;;;5050152;28;19909;-63
2022/11/18 05:28:56;;;;;;;;;;;;;;;;;;5061420;28;19912;-63
2022/11/18 05:31:22;;;;;;;;;;;;;;;;;;5069210;28;19919;-64
2022/11/18 05:33:48;;;;;;;;;;;;;;;;;;5052452;28;20054;-63
2022/11/18 05:36:14;;;;;;;;;;;;;;;;;;5049690;28;20038;-63
2022/11/18 05:38:40;;;;;;;;;;;;;;;;;;5050123;28;19963;-64
2022/11/18 05:41:06;;;;;;;;;;;;;;;;;;5050485;28;20277;-62
2022/11/18 05:43:32;;;;;;;;;;;;;;;;;;5049808;28;19927;-63
2022/11/18 05:45:57;;;;;;;;;;;;;;;;;;5050193;28;19987;-63
2022/11/18 05:48:23;;;;;;;;;;;;;;;;;;5049861;28;20432;-64
2022/11/18 05:50:49;;;;;;;;;;;;;;;;;;5049610;28;19920;-63
2022/11/18 05:53:15;;;;;;;;;;;;;;;;;;5049955;28;20262;-63
2022/11/18 05:55:41;;;;;;;;;;;;;;;;;;5049881;28;19948;-63
2022/11/18 05:58:07;;;;;;;;;;;;;;;;;;5082171;28;19943;-63
2022/11/18 06:00:33;;;;;;;;;;;;;;;;;;5049226;28;19931;-64
2022/11/18 06:02:59;;;;;;;;;;;;;;;;;;5049617;28;20399;-63
2022/11/18 06:05:25;;;;;;;;;;;;;;;;;;5050255;28;20377;-63
2022/11/18 06:07:51;;;;;;;;;;;;;;;;;;5049803;28;19920;-63
2022/11/18 06:10:16;;;;;;;;;;;;;;;;;;5056678;28;19919;-62
2022/11/18 06:12:42;;;;;;;;;;;;;;;;;;5069395;28;20525;-63
2022/11/18 06:15:08;;;;;;;;;;;;;;;;;;5056173;28;19913;-63
2022/11/18 06:17:34;;;;;;;;;;;;;;;;;;5055447;28;19927;-63
2022/11/18 06:20:00;;;;;;;;;;;;;;;;;;5043101;28;19971;-63
2022/11/18 06:22:26;;;;;;;;;;;;;;;;;;5049304;28;19919;-64
2022/11/18 06:24:52;;;;;;;;;;;;;;;;;;5049675;28;19909;-64
2022/11/18 06:27:18;;;;;;;;;;;;;;;;;;5050142;28;19913;-63
2022/11/18 06:29:43;;;;;;;;;;;;;;;;;;5060809;28;19912;-64
2022/11/18 06:32:10;;;;;;;;;;;;;;;;;;5068259;28;20414;-61
2022/11/18 06:34:35;;;;;;;;;;;;;;;;;;5068548;28;19917;-64
2022/11/18 06:37:01;;;;;;;;;;;;;;;;;;5068593;28;19919;-61
2022/11/18 06:39:28;;;;;;;;;;;;;;;;;;5068988;28;19909;-63
2022/11/18 06:41:54;;;;;;;;;;;;;;;;;;5068581;28;19920;-64
2022/11/18 06:44:20;;;;;;;;;;;;;;;;;;5068395;28;20174;-62
2022/11/18 06:46:55;;;;;;;;;;;;;;;;;;5068164;28;19913;-64
2022/11/18 06:49:21;;;;;;;;;;;;;;;;;;5068804;28;19944;-63
2022/11/18 06:51:47;;;;;;;;;;;;;;;;;;5068594;28;19908;-65
2022/11/18 06:54:13;;;;;;;;;;;;;;;;;;5068215;28;19997;-63
2022/11/18 06:56:39;;;;;;;;;;;;;;;;;;5068763;28;20341;-61
2022/11/18 06:59:04;;;;;;;;;;;;;;;;;;5062893;28;20281;-63
2022/11/18 07:01:30;;;;;;;;;;;;;;;;;;5054309;28;19920;-63
2022/11/18 07:03:56;;;;;;;;;;;;;;;;;;5048746;28;19913;-63
2022/11/18 07:06:22;;;;;;;;;;;;;;;;;;5049429;28;20360;-63
2022/11/18 07:08:48;;;;;;;;;;;;;;;;;;5049286;28;19913;-63
2022/11/18 07:11:14;;;;;;;;;;;;;;;;;;5049351;28;19951;-62
2022/11/18 07:13:40;;;;;;;;;;;;;;;;;;5052777;28;20528;-63
2022/11/18 07:16:06;;;;;;;;;;;;;;;;;;5052203;28;19925;-61
2022/11/18 07:18:31;;;;;;;;;;;;;;;;;;5060942;28;19967;-62
2022/11/18 07:20:57;;;;;;;;;;;;;;;;;;5053842;28;19919;-63
2022/11/18 07:23:23;;;;;;;;;;;;;;;;;;5058592;28;19909;-63
2022/11/18 07:25:49;;;;;;;;;;;;;;;;;;5051984;28;20003;-63
2022/11/18 07:28:15;;;;;;;;;;;;;;;;;;5052616;28;19912;-62
2022/11/18 07:30:41;;;;;;;;;;;;;;;;;;5052110;28;20399;-64
2022/11/18 07:33:07;;;;;;;;;;;;;;;;;;5052028;28;20281;-64
2022/11/18 07:35:33;;;;;;;;;;;;;;;;;;5046979;28;19913;-64
2022/11/18 07:37:59;;;;;;;;;;;;;;;;;;5052117;28;20360;-64
2022/11/18 07:40:25;;;;;;;;;;;;;;;;;;5052637;28;19909;-63
2022/11/18 07:42:51;;;;;;;;;;;;;;;;;;5051771;28;19915;-63
2022/11/18 07:45:16;;;;;;;;;;;;;;;;;;5051617;28;19913;-63
2022/11/18 07:47:42;;;;;;;;;;;;;;;;;;5051772;28;19913;-62
2022/11/18 07:50:08;;;;;;;;;;;;;;;;;;5052129;28;19940;-62
2022/11/18 07:52:34;;;;;;;;;;;;;;;;;;5051132;28;19920;-62
2022/11/18 07:55:00;;;;;;;;;;;;;;;;;;5052123;28;19936;-68
2022/11/18 07:57:26;;;;;;;;;;;;;;;;;;5051629;28;20408;-67
2022/11/18 07:59:52;;;;;;;;;;;;;;;;;;5060946;28;19920;-67
2022/11/18 08:02:18;;;;;;;;;;;;;;;;;;5051641;28;20289;-67
2022/11/18 08:04:44;;;;;;;;;;;;;;;;;;5053531;28;20005;-68
2022/11/18 08:07:09;;;;;;;;;;;;;;;;;;5059976;28;19913;-68
2022/11/18 08:09:35;;;;;;;;;;;;;;;;;;5051498;28;20003;-68
2022/11/18 08:12:01;;;;;;;;;;;;;;;;;;5064621;28;19920;-78
2022/11/18 08:14:27;;;;;;;;;;;;;;;;;;5038607;28;20286;-76
2022/11/18 08:16:53;;;;;;;;;;;;;;;;;;5047711;28;19916;-76
2022/11/18 08:19:19;;;;;;;;;;;;;;;;;;5045627;28;20507;-75
2022/11/18 08:21:45;;;;;;;;;;;;;;;;;;5044047;28;19916;-76
2022/11/18 08:24:11;;;;;;;;;;;;;;;;;;5046230;28;20382;-76
2022/11/18 08:26:37;;;;;;;;;;;;;;;;;;5045452;28;19916;-76
2022/11/18 08:29:02;;;;;;;;;;;;;;;;;;5046247;28;20007;-76
2022/11/18 08:31:29;;;;;;;;;;;;;;;;;;5043361;28;19927;-75
2022/11/18 08:33:55;;;;;;;;;;;;;;;;;;5046977;28;19925;-76
2022/11/18 08:36:21;;;;;;;;;;;;;;;;;;5041305;28;19921;-77
2022/11/18 08:38:47;;;;;;;;;;;;;;;;;;5041472;28;19917;-76
2022/11/18 08:41:13;;;;;;;;;;;;;;;;;;5043772;28;20328;-76
2022/11/18 08:43:39;;;;;;;;;;;;;;;;;;5049228;28;19929;-76
2022/11/18 08:46:05;;;;;;;;;;;;;;;;;;5043507;28;20011;-77
2022/11/18 08:48:31;;;;;;;;;;;;;;;;;;5046929;28;19953;-76
2022/11/18 08:50:56;;;;;;;;;;;;;;;;;;5044966;28;19920;-76
2022/11/18 08:53:22;;;;;;;;;;;;;;;;;;5042966;28;20292;-76
2022/11/18 08:55:48;;;;;;;;;;;;;;;;;;5043690;28;19919;-75
2022/11/18 08:58:14;;;;;;;;;;;;;;;;;;5044425;28;20048;-75
2022/11/18 09:00:40;;;;;;;;;;;;;;;;;;5046515;28;19921;-77
2022/11/18 09:03:06;;;;;;;;;;;;;;;;;;5045708;28;20499;-75
2022/11/18 09:05:32;;;;;;;;;;;;;;;;;;5046329;28;20003;-76
2022/11/18 09:07:58;;;;;;;;;;;;;;;;;;5043794;28;19948;-76
2022/11/18 09:10:24;;;;;;;;;;;;;;;;;;5046812;28;19955;-76
2022/11/18 09:12:50;;;;;;;;;;;;;;;;;;5046433;28;20400;-77
2022/11/18 09:15:15;;;;;;;;;;;;;;;;;;5046897;28;19917;-75
2022/11/18 09:17:42;;;;;;;;;;;;;;;;;;5043088;28;19913;-76
2022/11/18 09:20:07;;;;;;;;;;;;;;;;;;5048361;28;19924;-76
2022/11/18 09:22:33;;;;;;;;;;;;;;;;;;5040998;28;20293;-76
2022/11/18 09:24:59;;;;;;;;;;;;;;;;;;5040844;28;20404;-75
2022/11/18 09:27:25;;;;;;;;;;;;;;;;;;5043410;28;19912;-76
2022/11/18 09:29:51;;;;;;;;;;;;;;;;;;5043334;28;20411;-76
2022/11/18 09:32:18;;;;;;;;;;;;;;;;;;5045658;28;19919;-76
2022/11/18 09:34:44;;;;;;;;;;;;;;;;;;5047031;28;20447;-76
2022/11/18 09:37:10;;;;;;;;;;;;;;;;;;5043654;28;19920;-76
2022/11/18 09:39:36;;;;;;;;;;;;;;;;;;5040459;28;19920;-75
2022/11/18 09:42:01;;;;;;;;;;;;;;;;;;5044443;28;20296;-75
2022/11/18 09:44:27;;;;;;;;;;;;;;;;;;5045015;28;19956;-76
2022/11/18 09:46:53;;;;;;;;;;;;;;;;;;5079284;28;20011;-76
2022/11/18 09:49:19;;;;;;;;;;;;;;;;;;5043381;28;20364;-77
2022/11/18 09:51:45;;;;;;;;;;;;;;;;;;5046177;28;19923;-76
2022/11/18 09:54:13;;;;;;;;;;;;;;;;;;5048815;28;20297;-77
2022/11/18 09:56:39;;;;;;;;;;;;;;;;;;5044127;28;19952;-77
2022/11/18 09:59:05;;;;;;;;;;;;;;;;;;5041788;28;20003;-77
2022/11/18 10:01:31;;;;;;;;;;;;;;;;;;5050267;28;20015;-76
2022/11/18 10:03:57;;;;;;;;;;;;;;;;;;5040717;28;19919;-76
2022/11/18 10:06:23;;;;;;;;;;;;;;;;;;5044506;28;19924;-77
2022/11/18 10:08:49;;;;;;;;;;;;;;;;;;5043990;28;19935;-78
2022/11/18 10:11:15;;;;;;;;;;;;;;;;;;5042092;28;19917;-77
2022/11/18 10:13:42;;;;;;;;;;;;;;;;;;5042320;28;20334;-78
2022/11/18 10:16:08;;;;;;;;;;;;;;;;;;5043334;28;19986;-78
2022/11/18 10:18:34;;;;;;;;;;;;;;;;;;5043972;28;20333;-78
2022/11/18 10:20:59;;;;;;;;;;;;;;;;;;5038937;28;19964;-80
2022/11/18 10:23:26;;;;;;;;;;;;;;;;;;5044044;28;20388;-80
2022/11/18 10:25:52;;;;;;;;;;;;;;;;;;5041104;28;19921;-77
2022/11/18 10:28:18;;;;;;;;;;;;;;;;;;5046138;28;19917;-81
2022/11/18 10:30:44;;;;;;;;;;;;;;;;;;5043283;28;19913;-80
2022/11/18 10:33:10;;;;;;;;;;;;;;;;;;5044776;28;19947;-78
2022/11/18 10:35:36;;;;;;;;;;;;;;;;;;5043029;28;19921;-80
2022/11/18 10:38:02;;;;;;;;;;;;;;;;;;5045554;28;19926;-78
2022/11/18 10:40:27;;;;;;;;;;;;;;;;;;5046581;28;19921;-78
2022/11/18 10:42:53;;;;;;;;;;;;;;;;;;5045781;28;19960;-80
2022/11/18 10:45:19;;;;;;;;;;;;;;;;;;5070001;28;20011;-78
2022/11/18 10:47:45;;;;;;;;;;;;;;;;;;5047588;28;20043;-78
2022/11/18 10:50:11;;;;;;;;;;;;;;;;;;5046234;28;19912;-80
2022/11/18 10:52:37;;;;;;;;;;;;;;;;;;5047513;28;20869;-77
2022/11/18 10:55:03;;;;;;;;;;;;;;;;;;5047074;28;19921;-79
2022/11/18 10:57:29;;;;;;;;;;;;;;;;;;5045266;28;19917;-80
2022/11/18 10:59:54;;;;;;;;;;;;;;;;;;5047446;28;19921;-80
2022/11/18 11:02:20;;;;;;;;;;;;;;;;;;5048312;28;19912;-78
2022/11/18 11:04:46;;;;;;;;;;;;;;;;;;5048121;28;20353;-81
2022/11/18 11:07:12;;;;;;;;;;;;;;;;;;5048152;28;20078;-81
2022/11/18 11:09:38;;;;;;;;;;;;;;;;;;5047951;28;19913;-81
2022/11/18 11:12:04;;;;;;;;;;;;;;;;;;5043939;28;19924;-77
2022/11/18 11:14:30;;;;;;;;;;;;;;;;;;5047850;28;19932;-79
2022/11/18 11:16:56;;;;;;;;;;;;;;;;;;5043945;28;19917;-78
2022/11/18 11:19:22;;;;;;;;;;;;;;;;;;5052701;28;20307;-79
2022/11/18 11:21:48;;;;;;;;;;;;;;;;;;5045201;28;19919;-80
2022/11/18 11:24:13;;;;;;;;;;;;;;;;;;5048379;28;19917;-79
2022/11/18 11:26:40;;;;;;;;;;;;;;;;;;5047256;28;20014;-80
2022/11/18 11:29:06;;;;;;;;;;;;;;;;;;5045428;28;19921;-75
2022/11/18 11:31:33;;;;;;;;;;;;;;;;;;5045616;28;20000;-79
2022/11/18 11:33:59;;;;;;;;;;;;;;;;;;5047929;28;19921;-79
2022/11/18 11:36:25;;;;;;;;;;;;;;;;;;5048208;28;19924;-79
2022/11/18 11:38:53;;;;;;;;;;;;;;;;;;5042106;28;20285;-79
2022/11/18 11:41:19;;;;;;;;;;;;;;;;;;5045932;28;19917;-76
2022/11/18 11:43:45;;;;;;;;;;;;;;;;;;5044722;28;19913;-76
2022/11/18 11:46:11;;;;;;;;;;;;;;;;;;5049746;28;19978;-77
2022/11/18 11:48:37;;;;;;;;;;;;;;;;;;5047196;28;19912;-76
2022/11/18 11:51:02;;;;;;;;;;;;;;;;;;5047242;28;20359;-77
2022/11/18 11:53:28;;;;;;;;;;;;;;;;;;5042778;28;19921;-79
2022/11/18 11:55:54;;;;;;;;;;;;;;;;;;5047871;28;19909;-77
2022/11/18 11:58:20;;;;;;;;;;;;;;;;;;5046558;28;20589;-79
2022/11/18 12:00:46;;;;;;;;;;;;;;;;;;5048959;28;19925;-78
2022/11/18 12:03:12;;;;;;;;;;;;;;;;;;5047204;28;19945;-78
2022/11/18 12:05:39;;;;;;;;;;;;;;;;;;5048353;28;19978;-76
2022/11/18 12:08:05;;;;;;;;;;;;;;;;;;5046181;28;19912;-78
2022/11/18 12:10:31;;;;;;;;;;;;;;;;;;5045201;28;20336;-80
2022/11/18 12:12:57;;;;;;;;;;;;;;;;;;5048260;28;19932;-79
2022/11/18 12:15:22;;;;;;;;;;;;;;;;;;5047612;28;19924;-80
2022/11/18 12:17:48;;;;;;;;;;;;;;;;;;5044796;28;19936;-78
2022/11/18 12:20:14;;;;;;;;;;;;;;;;;;5045148;28;19967;-76
2022/11/18 12:22:40;;;;;;;;;;;;;;;;;;5517095;22;19925;-76
2022/11/18 12:25:06;;;;;;;;;;;;;;;;;;5042518;28;20308;-76
2022/11/18 12:27:33;;;;;;;;;;;;;;;;;;5048161;28;19917;-80
2022/11/18 12:30:00;;;;;;;;;;;;;;;;;;5042463;28;19916;-80
2022/11/18 12:32:26;;;;;;;;;;;;;;;;;;5041606;28;19917;-80
2022/11/18 12:34:52;;;;;;;;;;;;;;;;;;5043971;28;19924;-80
2022/11/18 12:37:18;;;;;;;;;;;;;;;;;;5045404;28;19924;-79
2022/11/18 12:39:44;;;;;;;;;;;;;;;;;;5040356;28;20934;-78
2022/11/18 12:44:54;;;;;;;;;;;;;;;;;;5046929;28;20304;-77
2022/11/18 12:47:20;;;;;;;;;;;;;;;;;;5049681;28;20377;-79
2022/11/18 12:49:46;;;;;;;;;;;;;;;;;;5045416;28;19909;-79
2022/11/18 12:52:12;;;;;;;;;;;;;;;;;;5045933;28;20345;-79
2022/11/18 12:54:38;;;;;;;;;;;;;;;;;;5045288;28;19999;-81
2022/11/18 12:57:04;;;;;;;;;;;;;;;;;;5044929;28;19923;-80
2022/11/18 12:59:30;;;;;;;;;;;;;;;;;;5047393;28;19917;-80
2022/11/18 13:01:55;;;;;;;;;;;;;;;;;;5048461;28;20335;-79
2022/11/18 13:04:21;;;;;;;;;;;;;;;;;;5044964;28;19924;-81
2022/11/18 13:06:49;;;;;;;;;;;;;;;;;;5045638;28;19909;-80
2022/11/18 13:09:15;;;;;;;;;;;;;;;;;;5047180;28;20000;-81
2022/11/18 13:11:44;;;;;;;;;;;;;;;;;;5049890;28;20031;-81
2022/11/18 13:19:39;;;;;;;;;;;;;;;;;;5044490;28;19916;-80
2022/11/18 13:24:50;;;;;;;;;;;;;;;;;;5040146;28;19967;-80
2022/11/18 13:27:16;;;;;;;;;;;;;;;;;;5048104;28;19949;-80
2022/11/18 13:29:41;;;;;;;;;;;;;;;;;;5050567;28;20646;-80
2022/11/18 13:32:08;;;;;;;;;;;;;;;;;;5045046;28;19923;-80
2022/11/18 13:34:34;;;;;;;;;;;;;;;;;;5044956;28;19956;-80
2022/11/18 13:37:00;;;;;;;;;;;;;;;;;;5048993;28;19978;-80
2022/11/18 13:39:25;;;;;;;;;;;;;;;;;;5048871;28;19912;-80
2022/11/18 13:41:51;;;;;;;;;;;;;;;;;;5047068;28;19920;-80
2022/11/18 13:44:17;;;;;;;;;;;;;;;;;;5045962;28;19913;-80
2022/11/18 13:46:43;;;;;;;;;;;;;;;;;;5043768;28;19913;-80
2022/11/18 13:49:09;;;;;;;;;;;;;;;;;;5049545;28;19909;-79
2022/11/18 13:51:36;;;;;;;;;;;;;;;;;;5047790;28;19916;-79
2022/11/18 13:54:02;;;;;;;;;;;;;;;;;;5042648;28;19928;-79
2022/11/18 13:56:29;;;;;;;;;;;;;;;;;;5048621;28;19932;-78
2022/11/18 13:58:55;;;;;;;;;;;;;;;;;;5042847;28;19909;-78
2022/11/18 14:01:21;;;;;;;;;;;;;;;;;;5049347;28;19909;-78
2022/11/18 14:03:47;;;;;;;;;;;;;;;;;;5065119;28;20452;-79
2022/11/18 14:06:13;;;;;;;;;;;;;;;;;;5064519;28;19920;-78
2022/11/18 14:08:39;;;;;;;;;;;;;;;;;;5049626;28;19912;-79
2022/11/18 14:11:05;;;;;;;;;;;;;;;;;;5044064;28;19924;-81
2022/11/18 14:13:31;;;;;;;;;;;;;;;;;;5049520;28;19970;-80
2022/11/18 14:15:57;;;;;;;;;;;;;;;;;;5047963;28;19912;-79
2022/11/18 14:18:23;;;;;;;;;;;;;;;;;;5045055;28;19912;-79
2022/11/18 14:20:50;;;;;;;;;;;;;;;;;;5046130;28;19943;-80
2022/11/18 14:23:16;;;;;;;;;;;;;;;;;;5051694;28;19921;-80
2022/11/18 14:25:42;;;;;;;;;;;;;;;;;;5044255;28;20288;-78
2022/11/18 14:28:07;;;;;;;;;;;;;;;;;;5046438;28;19927;-79
2022/11/18 14:30:33;;;;;;;;;;;;;;;;;;5045289;28;20034;-78
2022/11/18 14:32:59;;;;;;;;;;;;;;;;;;5042666;28;19925;-80
2022/11/18 14:35:25;;;;;;;;;;;;;;;;;;5047349;28;19916;-80
2022/11/18 14:37:51;;;;;;;;;;;;;;;;;;5042865;28;19923;-79
2022/11/18 14:40:18;;;;;;;;;;;;;;;;;;5048281;28;19940;-78
2022/11/18 14:42:44;;;;;;;;;;;;;;;;;;5041881;28;19917;-79
2022/11/18 14:45:10;;;;;;;;;;;;;;;;;;5045860;28;20784;-78
2022/11/18 14:47:36;;;;;;;;;;;;;;;;;;5048137;28;20304;-77
2022/11/18 14:50:02;;;;;;;;;;;;;;;;;;5045862;28;19961;-77
2022/11/18 14:52:27;;;;;;;;;;;;;;;;;;5044551;28;19917;-77
2022/11/18 14:54:53;;;;;;;;;;;;;;;;;;5043577;28;19917;-77
2022/11/18 14:57:19;;;;;;;;;;;;;;;;;;5046679;28;20342;-77
2022/11/18 14:59:45;;;;;;;;;;;;;;;;;;5043338;28;19924;-78
2022/11/18 15:02:11;;;;;;;;;;;;;;;;;;5043751;28;19924;-78
2022/11/18 15:04:37;;;;;;;;;;;;;;;;;;5040691;28;19924;-78
2022/11/18 15:07:03;;;;;;;;;;;;;;;;;;5045662;28;19957;-77
2022/11/18 15:09:29;;;;;;;;;;;;;;;;;;5047410;28;20063;-76
2022/11/18 15:11:55;;;;;;;;;;;;;;;;;;5046525;28;19913;-78
2022/11/18 15:14:20;;;;;;;;;;;;;;;;;;5047400;28;19925;-77
2022/11/18 15:16:46;;;;;;;;;;;;;;;;;;5048583;28;19913;-79
2022/11/18 15:19:12;;;;;;;;;;;;;;;;;;5046868;28;19916;-79
2022/11/18 15:21:38;;;;;;;;;;;;;;;;;;5046472;28;19923;-83
2022/11/18 15:24:04;;;;;;;;;;;;;;;;;;5042688;28;20379;-81
2022/11/18 15:26:32;;;;;;;;;;;;;;;;;;5042061;28;19913;-82
2022/11/18 15:28:58;;;;;;;;;;;;;;;;;;5044742;28;19920;-78
2022/11/18 15:31:24;;;;;;;;;;;;;;;;;;5043153;28;19917;-78
2022/11/18 15:36:25;;;;;;;;;;;;;;;;;;5110515;22;19926;-79
2022/11/18 15:38:51;;;;;;;;;;;;;;;;;;5006135;28;19972;-77
2022/11/18 15:41:17;;;;;;;;;;;;;;;;;;5005714;28;20412;-76
2022/11/18 15:43:43;;;;;;;;;;;;;;;;;;5005010;28;19914;-78
2022/11/18 15:46:09;;;;;;;;;;;;;;;;;;5005351;28;19965;-77
2022/11/18 15:48:35;;;;;;;;;;;;;;;;;;5009570;28;19921;-76
2022/11/18 15:51:01;;;;;;;;;;;;;;;;;;5010285;28;19956;-77
2022/11/18 15:53:27;;;;;;;;;;;;;;;;;;5007710;28;19933;-80
2022/11/18 15:55:52;;;;;;;;;;;;;;;;;;5007321;28;19925;-80
2022/11/18 15:58:18;;;;;;;;;;;;;;;;;;5008517;28;20008;-78
2022/11/18 16:00:44;;;;;;;;;;;;;;;;;;5006652;28;19913;-79
2022/11/18 16:03:10;;;;;;;;;;;;;;;;;;5008873;28;19917;-78
2022/11/18 16:05:36;;;;;;;;;;;;;;;;;;5008080;28;20008;-81
2022/11/18 16:08:02;;;;;;;;;;;;;;;;;;5009644;28;19913;-77
2022/11/18 16:13:12;;;;;;;;;;;;;;;;;;5007854;28;19971;-77
2022/11/18 16:15:46;;;;;;;;;;;;;;;;;;5008091;28;19957;-77
2022/11/18 16:18:12;;;;;;;;;;;;;;;;;;5007224;28;19917;-78
2022/11/18 16:20:38;;;;;;;;;;;;;;;;;;5008373;28;20384;-77
2022/11/18 16:23:04;;;;;;;;;;;;;;;;;;5005485;28;20506;-78
2022/11/18 16:25:30;;;;;;;;;;;;;;;;;;5003838;28;19914;-79
2022/11/18 16:27:56;;;;;;;;;;;;;;;;;;5007641;28;19926;-78
2022/11/18 16:33:07;;;;;;;;;;;;;;;;;;5008905;28;19932;-79
2022/11/18 16:35:32;;;;;;;;;;;;;;;;;;5003864;28;20326;-80
2022/11/18 16:37:58;;;;;;;;;;;;;;;;;;5007018;28;20396;-76
2022/11/18 16:40:24;;;;;;;;;;;;;;;;;;5006710;28;20004;-77
2022/11/18 16:42:50;;;;;;;;;;;;;;;;;;5008236;28;20706;-77
2022/11/18 16:45:16;;;;;;;;;;;;;;;;;;5002453;28;19929;-79
2022/11/18 16:47:42;;;;;;;;;;;;;;;;;;5004707;28;20599;-79
2022/11/18 16:50:08;;;;;;;;;;;;;;;;;;5008161;28;19924;-79
2022/11/18 16:52:34;;;;;;;;;;;;;;;;;;5002919;28;19914;-78
2022/11/18 16:55:00;;;;;;;;;;;;;;;;;;4999952;28;19922;-77
2022/11/18 16:57:26;;;;;;;;;;;;;;;;;;5008433;28;19913;-80
2022/11/18 16:59:52;;;;;;;;;;;;;;;;;;5000623;28;19937;-77
2022/11/18 17:02:22;;;;;;;;;;;;;;;;;;5006214;28;20238;-79
2022/11/18 17:04:48;;;;;;;;;;;;;;;;;;5003145;28;19937;-78